DSNT2: Lake Texoma, Denison Dam

Data processed at Fri Dec 08 2017 23:09


All information presented herein is the property of the government of the United States of America and may be revised or deleted at any time without prior notice.
Dissemination of this information without the expressed written consent of the Public Affairs Office, Tulsa District U.S. Army Corps of Engineers is strictly prohibited.
These data are gathered electronically and, as presented, have not undergone any form of quality control. These data are not guaranteed to be valid or correct.
Go to home page.
Go to station list.

Upstream stations:

Downstream station:
Previous Day
Next Day
Current Day
    
SHEF ID:       DSNT2     Lake Texoma, Denison Dam
STATION TYPE:  Reservoir
Normal Pool:  Bottom =   590.00, Top =   618.21

               PRECIP PRECIP(A) ELEVATION   STORAGE   TW-ELEV    INFLOW   RELEASE  AIR-TEMP  WIND-DIRWIND-SPEED REL-HUMID SOLAR-RAD   VOLTAGE  BAT-LOAD
                   in        in        ft     ac-ft        ft       cfs       cfs         F       deg       mph         %      W/m2      volt      volt
              Ccp-Rev   Ccp-Rev   Ccp-Rev   Ccp-Rev   Ccp-Rev  Regi-Rev  Regi-Rev   Ccp-Rev   Ccp-Rev   Ccp-Rev   Ccp-Rev   Ccp-Rev   Ccp-Rev   Ccp-Rev
(US/Central)
12/06 00:00      0.00      0.00    618.78   2626617    501.73      2905         0     43.41     35.90      5.89     35.54      0.00     12.95     12.60
12/06 01:00      0.00      0.00    618.78   2626617    501.74      2905        19     44.62     31.90      3.10     37.42      0.00     12.93     12.60
12/06 02:00      0.00      0.00    618.78   2626617    501.73      1936        19     46.71    336.50      4.37     41.70      0.00     12.92     12.60
12/06 03:00      0.00      0.00    618.77   2625820    501.73         6        19     45.93    310.40      3.75     32.84      0.00     12.91     12.60
12/06 04:00      0.00      0.00    618.76   2625023    501.76         8        19     46.04    301.50      8.92     43.89      0.00     12.89     12.54
12/06 05:00      0.00      0.00    618.76   2625023    501.73        10        19     45.81    347.80      7.43     33.88      0.00     12.88     12.54
12/06 06:00      0.00      0.00    618.75   2624226    501.74        13        19     43.84     47.20      2.46     57.20      0.00     12.87     12.54
12/06 07:00      0.00      0.00    618.76   2625023    501.75        17        19     46.92    323.90      2.93     36.69      0.00     12.86     12.54
12/06 08:00      0.00      0.00    618.76   2625023    501.75      3876        19     46.26    347.30      0.28     47.80     15.00     12.88     12.54
12/06 09:00      0.00      0.00    618.76   2625023    501.74      3876        19     47.35    302.50      3.65     52.07     67.00     13.04     12.54
12/06 10:00      0.00      0.00    618.78   2626617    501.75      3876        19     48.58    308.30      9.87     38.71    150.00     13.44     12.71
12/06 11:00      0.00      0.00    618.78   2626617    501.74      3876        19     50.56    302.90     11.70     41.09    283.00     13.84     13.12
12/06 12:00      0.00      0.00    618.78   2626617    501.74      3876        19     51.98    294.10     14.31     28.39    303.00     14.09     13.48
12/06 13:00      0.00      0.00    618.78   2626617    501.75       249        19     52.97    300.10     14.56     30.65    276.00     13.72     13.53
12/06 14:00      0.00      0.00    618.78   2626617    501.74       246        19     54.18    282.60     12.18     26.86    284.00     13.97     13.65
12/06 15:00      0.00      0.00    618.78   2626617    504.36       243      1169     54.84    296.00     10.51     25.09    249.00     14.50     13.42
12/06 16:00      0.00      0.00    618.77   2625820    506.41       239      4919     55.17    290.70      8.74     26.01    176.00     14.31     13.18
12/06 17:00      0.00      0.00    618.77   2625820    506.43       236      4919     55.49    300.90      9.88     27.41     29.00     13.15     13.07
12/06 18:00      0.00      0.00    618.76   2625023    506.42         2      4919     54.95      2.30      6.56     28.45      0.00     13.06     12.83
12/06 19:00      0.00      0.00    618.75   2624226    506.48        40      4919     52.30     19.20      6.47     29.67      0.00     13.03     12.71
12/06 20:00      0.00      0.00    618.75   2624226    506.48       523      4819     52.52      8.90      6.19     37.00      0.00     13.02     12.65
12/06 21:00      0.00      0.00    618.75   2624226    506.47      1007      4919     52.86    342.00      7.78     44.87      0.00     13.00     12.65
12/06 22:00      0.00      0.00    618.77   2625820    505.39      1011      4819     50.88    346.70     14.01     40.17      0.00     12.99     12.65
12/06 23:00      0.00      0.00    618.75   2624226    501.76      1014        19     48.34     13.30     12.64     39.56      0.00     12.97     12.65